sensor_id;sensor_type;location;lat;lon;timestamp;P1;durP1;ratioP1;P2;durP2;ratioP2
29902;SDS011;30288;50.514;9.678;2023-05-10T00:01:20;10.77;;;7.70;;
29902;SDS011;30288;50.514;9.678;2023-05-10T00:03:25;10.43;;;7.10;;
29902;SDS011;30288;50.514;9.678;2023-05-10T00:05:31;9.55;;;7.18;;
29902;SDS011;30288;50.514;9.678;2023-05-10T00:07:37;9.63;;;7.00;;
29902;SDS011;30288;50.514;9.678;2023-05-10T00:09:42;9.50;;;6.30;;
29902;SDS011;30288;50.514;9.678;2023-05-10T00:11:48;9.48;;;7.00;;
29902;SDS011;30288;50.514;9.678;2023-05-10T00:13:53;10.80;;;6.63;;
29902;SDS011;30288;50.514;9.678;2023-05-10T00:16:02;11.60;;;7.68;;
29902;SDS011;30288;50.514;9.678;2023-05-10T00:18:07;11.73;;;7.57;;
29902;SDS011;30288;50.514;9.678;2023-05-10T00:20:13;11.48;;;8.05;;
29902;SDS011;30288;50.514;9.678;2023-05-10T00:22:19;10.70;;;6.82;;
29902;SDS011;30288;50.514;9.678;2023-05-10T00:24:24;12.70;;;8.52;;
29902;SDS011;30288;50.514;9.678;2023-05-10T00:26:30;11.70;;;8.20;;
29902;SDS011;30288;50.514;9.678;2023-05-10T00:28:35;15.80;;;8.40;;
29902;SDS011;30288;50.514;9.678;2023-05-10T00:30:40;12.82;;;8.63;;
29902;SDS011;30288;50.514;9.678;2023-05-10T00:32:48;16.85;;;8.25;;
29902;SDS011;30288;50.514;9.678;2023-05-10T00:34:53;12.40;;;8.35;;
29902;SDS011;30288;50.514;9.678;2023-05-10T00:37:00;13.30;;;7.95;;
29902;SDS011;30288;50.514;9.678;2023-05-10T00:39:07;12.07;;;7.22;;
29902;SDS011;30288;50.514;9.678;2023-05-10T00:41:12;9.00;;;6.63;;
29902;SDS011;30288;50.514;9.678;2023-05-10T00:43:19;9.40;;;4.25;;
29902;SDS011;30288;50.514;9.678;2023-05-10T00:45:24;11.07;;;5.13;;
29902;SDS011;30288;50.514;9.678;2023-05-10T00:47:30;6.32;;;3.67;;
29902;SDS011;30288;50.514;9.678;2023-05-10T00:49:36;7.40;;;3.92;;
29902;SDS011;30288;50.514;9.678;2023-05-10T00:51:42;5.75;;;3.30;;
29902;SDS011;30288;50.514;9.678;2023-05-10T00:53:47;7.03;;;3.58;;
29902;SDS011;30288;50.514;9.678;2023-05-10T00:55:53;6.78;;;3.70;;
29902;SDS011;30288;50.514;9.678;2023-05-10T00:57:59;6.90;;;3.30;;
29902;SDS011;30288;50.514;9.678;2023-05-10T01:00:05;11.32;;;3.42;;
29902;SDS011;30288;50.514;9.678;2023-05-10T01:02:13;9.38;;;3.75;;
29902;SDS011;30288;50.514;9.678;2023-05-10T01:04:18;6.38;;;3.58;;
29902;SDS011;30288;50.514;9.678;2023-05-10T01:06:29;7.05;;;3.63;;
29902;SDS011;30288;50.514;9.678;2023-05-10T01:08:35;6.35;;;3.72;;
29902;SDS011;30288;50.514;9.678;2023-05-10T01:10:41;6.03;;;3.67;;
29902;SDS011;30288;50.514;9.678;2023-05-10T01:12:47;7.22;;;3.70;;
29902;SDS011;30288;50.514;9.678;2023-05-10T01:14:52;8.02;;;4.07;;
29902;SDS011;30288;50.514;9.678;2023-05-10T01:16:58;8.68;;;4.32;;
29902;SDS011;30288;50.514;9.678;2023-05-10T01:19:05;12.02;;;4.85;;
29902;SDS011;30288;50.514;9.678;2023-05-10T01:21:19;8.90;;;4.45;;
29902;SDS011;30288;50.514;9.678;2023-05-10T01:23:40;6.55;;;3.42;;
29902;SDS011;30288;50.514;9.678;2023-05-10T01:26:16;8.45;;;3.75;;
29902;SDS011;30288;50.514;9.678;2023-05-10T01:28:49;6.10;;;3.20;;
29902;SDS011;30288;50.514;9.678;2023-05-10T01:31:18;9.88;;;3.72;;
29902;SDS011;30288;50.514;9.678;2023-05-10T01:33:35;6.05;;;3.67;;
29902;SDS011;30288;50.514;9.678;2023-05-10T01:35:51;6.28;;;3.58;;
29902;SDS011;30288;50.514;9.678;2023-05-10T01:38:11;8.23;;;3.70;;
29902;SDS011;30288;50.514;9.678;2023-05-10T01:40:25;6.35;;;3.45;;
29902;SDS011;30288;50.514;9.678;2023-05-10T01:44:49;10.98;;;4.50;;
29902;SDS011;30288;50.514;9.678;2023-05-10T01:47:04;8.50;;;3.75;;
29902;SDS011;30288;50.514;9.678;2023-05-10T01:49:20;6.72;;;4.35;;
29902;SDS011;30288;50.514;9.678;2023-05-10T01:51:31;6.35;;;4.03;;
29902;SDS011;30288;50.514;9.678;2023-05-10T01:53:43;6.60;;;4.13;;
29902;SDS011;30288;50.514;9.678;2023-05-10T01:55:51;9.20;;;4.72;;
29902;SDS011;30288;50.514;9.678;2023-05-10T01:58:00;10.07;;;4.07;;
29902;SDS011;30288;50.514;9.678;2023-05-10T02:00:10;9.95;;;4.70;;
29902;SDS011;30288;50.514;9.678;2023-05-10T02:02:18;5.20;;;2.50;;
29902;SDS011;30288;50.514;9.678;2023-05-10T02:04:30;4.22;;;2.15;;
29902;SDS011;30288;50.514;9.678;2023-05-10T02:06:39;3.13;;;1.67;;
29902;SDS011;30288;50.514;9.678;2023-05-10T02:08:47;2.78;;;1.20;;
29902;SDS011;30288;50.514;9.678;2023-05-10T02:10:54;5.95;;;1.25;;
29902;SDS011;30288;50.514;9.678;2023-05-10T02:13:02;2.45;;;0.90;;
29902;SDS011;30288;50.514;9.678;2023-05-10T02:15:10;5.10;;;0.98;;
29902;SDS011;30288;50.514;9.678;2023-05-10T02:17:19;1.63;;;0.75;;
29902;SDS011;30288;50.514;9.678;2023-05-10T02:19:25;6.03;;;1.17;;
29902;SDS011;30288;50.514;9.678;2023-05-10T02:21:36;2.60;;;0.70;;
29902;SDS011;30288;50.514;9.678;2023-05-10T02:23:43;1.00;;;0.60;;
29902;SDS011;30288;50.514;9.678;2023-05-10T02:25:50;2.75;;;0.70;;
29902;SDS011;30288;50.514;9.678;2023-05-10T02:27:59;2.72;;;0.70;;
29902;SDS011;30288;50.514;9.678;2023-05-10T02:30:10;1.73;;;0.70;;
29902;SDS011;30288;50.514;9.678;2023-05-10T02:32:16;0.77;;;0.57;;
29902;SDS011;30288;50.514;9.678;2023-05-10T02:34:24;3.70;;;0.70;;
29902;SDS011;30288;50.514;9.678;2023-05-10T02:36:34;1.90;;;0.50;;
29902;SDS011;30288;50.514;9.678;2023-05-10T02:38:42;2.40;;;0.50;;
29902;SDS011;30288;50.514;9.678;2023-05-10T02:40:48;1.85;;;0.47;;
29902;SDS011;30288;50.514;9.678;2023-05-10T02:42:56;2.47;;;0.40;;
29902;SDS011;30288;50.514;9.678;2023-05-10T02:45:07;0.60;;;0.43;;
29902;SDS011;30288;50.514;9.678;2023-05-10T02:47:16;6.18;;;0.47;;
29902;SDS011;30288;50.514;9.678;2023-05-10T02:49:23;2.05;;;0.60;;
29902;SDS011;30288;50.514;9.678;2023-05-10T02:51:30;3.22;;;0.80;;
29902;SDS011;30288;50.514;9.678;2023-05-10T02:53:41;1.60;;;0.60;;
29902;SDS011;30288;50.514;9.678;2023-05-10T02:55:51;2.92;;;0.65;;
29902;SDS011;30288;50.514;9.678;2023-05-10T02:58:01;0.85;;;0.52;;
29902;SDS011;30288;50.514;9.678;2023-05-10T03:00:07;5.50;;;1.23;;
29902;SDS011;30288;50.514;9.678;2023-05-10T03:02:14;2.45;;;0.68;;
29902;SDS011;30288;50.514;9.678;2023-05-10T03:04:19;1.27;;;0.43;;
29902;SDS011;30288;50.514;9.678;2023-05-10T03:06:28;0.82;;;0.40;;
29902;SDS011;30288;50.514;9.678;2023-05-10T03:08:36;3.13;;;0.55;;
29902;SDS011;30288;50.514;9.678;2023-05-10T03:10:48;1.45;;;0.30;;
29902;SDS011;30288;50.514;9.678;2023-05-10T03:13:12;1.10;;;0.30;;
29902;SDS011;30288;50.514;9.678;2023-05-10T03:15:30;2.97;;;0.47;;
29902;SDS011;30288;50.514;9.678;2023-05-10T03:17:47;2.35;;;0.50;;
29902;SDS011;30288;50.514;9.678;2023-05-10T03:22:14;12.38;;;1.25;;
29902;SDS011;30288;50.514;9.678;2023-05-10T03:24:30;1.90;;;0.50;;
29902;SDS011;30288;50.514;9.678;2023-05-10T03:26:38;1.73;;;0.40;;
29902;SDS011;30288;50.514;9.678;2023-05-10T03:28:48;1.25;;;0.32;;
29902;SDS011;30288;50.514;9.678;2023-05-10T03:30:55;7.68;;;0.55;;
29902;SDS011;30288;50.514;9.678;2023-05-10T03:33:04;2.25;;;0.90;;
29902;SDS011;30288;50.514;9.678;2023-05-10T03:35:14;7.68;;;0.80;;
29902;SDS011;30288;50.514;9.678;2023-05-10T03:37:19;3.15;;;0.60;;
29902;SDS011;30288;50.514;9.678;2023-05-10T03:39:24;3.03;;;0.60;;
29902;SDS011;30288;50.514;9.678;2023-05-10T03:41:35;1.30;;;0.57;;
29902;SDS011;30288;50.514;9.678;2023-05-10T03:43:40;2.65;;;0.70;;
29902;SDS011;30288;50.514;9.678;2023-05-10T03:45:46;5.72;;;0.65;;
29902;SDS011;30288;50.514;9.678;2023-05-10T03:47:51;9.43;;;1.55;;
29902;SDS011;30288;50.514;9.678;2023-05-10T03:49:56;3.45;;;0.40;;
29902;SDS011;30288;50.514;9.678;2023-05-10T03:52:02;6.00;;;0.85;;
29902;SDS011;30288;50.514;9.678;2023-05-10T03:54:08;4.55;;;0.55;;
29902;SDS011;30288;50.514;9.678;2023-05-10T03:56:15;6.63;;;0.60;;
29902;SDS011;30288;50.514;9.678;2023-05-10T03:58:22;1.20;;;0.50;;
29902;SDS011;30288;50.514;9.678;2023-05-10T04:00:27;4.82;;;0.38;;
29902;SDS011;30288;50.514;9.678;2023-05-10T04:02:34;6.80;;;0.70;;
29902;SDS011;30288;50.514;9.678;2023-05-10T04:04:39;4.10;;;0.77;;
29902;SDS011;30288;50.514;9.678;2023-05-10T04:06:45;2.00;;;0.35;;
29902;SDS011;30288;50.514;9.678;2023-05-10T04:08:50;1.15;;;0.30;;
29902;SDS011;30288;50.514;9.678;2023-05-10T04:11:04;2.60;;;0.55;;
29902;SDS011;30288;50.514;9.678;2023-05-10T04:13:11;2.05;;;0.30;;
29902;SDS011;30288;50.514;9.678;2023-05-10T04:15:19;1.52;;;0.50;;
29902;SDS011;30288;50.514;9.678;2023-05-10T04:17:24;2.03;;;0.40;;
29902;SDS011;30288;50.514;9.678;2023-05-10T04:19:29;2.90;;;0.73;;
29902;SDS011;30288;50.514;9.678;2023-05-10T04:21:35;2.25;;;0.40;;
29902;SDS011;30288;50.514;9.678;2023-05-10T04:23:41;3.80;;;0.40;;
29902;SDS011;30288;50.514;9.678;2023-05-10T04:25:46;4.38;;;0.75;;
29902;SDS011;30288;50.514;9.678;2023-05-10T04:27:51;1.92;;;0.70;;
29902;SDS011;30288;50.514;9.678;2023-05-10T04:29:56;2.00;;;0.45;;
29902;SDS011;30288;50.514;9.678;2023-05-10T04:32:04;1.98;;;0.63;;
29902;SDS011;30288;50.514;9.678;2023-05-10T04:34:11;1.30;;;0.75;;
29902;SDS011;30288;50.514;9.678;2023-05-10T04:36:17;4.25;;;0.90;;
29902;SDS011;30288;50.514;9.678;2023-05-10T04:38:22;4.32;;;0.60;;
29902;SDS011;30288;50.514;9.678;2023-05-10T04:40:27;2.38;;;0.80;;
29902;SDS011;30288;50.514;9.678;2023-05-10T04:42:32;3.38;;;1.00;;
29902;SDS011;30288;50.514;9.678;2023-05-10T04:44:38;6.57;;;1.15;;
29902;SDS011;30288;50.514;9.678;2023-05-10T04:46:43;1.40;;;0.80;;
29902;SDS011;30288;50.514;9.678;2023-05-10T04:48:51;2.05;;;0.70;;
29902;SDS011;30288;50.514;9.678;2023-05-10T04:50:56;1.90;;;0.43;;
29902;SDS011;30288;50.514;9.678;2023-05-10T04:53:01;1.77;;;0.55;;
29902;SDS011;30288;50.514;9.678;2023-05-10T04:55:07;0.60;;;0.40;;
29902;SDS011;30288;50.514;9.678;2023-05-10T04:57:13;2.20;;;0.43;;
29902;SDS011;30288;50.514;9.678;2023-05-10T04:59:18;2.35;;;0.43;;
29902;SDS011;30288;50.514;9.678;2023-05-10T05:01:23;2.65;;;0.50;;
29902;SDS011;30288;50.514;9.678;2023-05-10T05:03:28;13.65;;;2.28;;
29902;SDS011;30288;50.514;9.678;2023-05-10T05:05:37;1.88;;;0.70;;
29902;SDS011;30288;50.514;9.678;2023-05-10T05:07:42;1.92;;;0.50;;
29902;SDS011;30288;50.514;9.678;2023-05-10T05:09:47;0.40;;;0.40;;
29902;SDS011;30288;50.514;9.678;2023-05-10T05:11:52;2.00;;;0.60;;
29902;SDS011;30288;50.514;9.678;2023-05-10T05:13:57;4.38;;;0.60;;
29902;SDS011;30288;50.514;9.678;2023-05-10T05:16:03;4.65;;;0.50;;
29902;SDS011;30288;50.514;9.678;2023-05-10T05:18:09;9.25;;;0.75;;
29902;SDS011;30288;50.514;9.678;2023-05-10T05:20:15;9.43;;;0.95;;
29902;SDS011;30288;50.514;9.678;2023-05-10T05:22:23;3.65;;;0.63;;
29902;SDS011;30288;50.514;9.678;2023-05-10T05:24:32;0.88;;;0.50;;
29902;SDS011;30288;50.514;9.678;2023-05-10T05:26:40;7.13;;;0.70;;
29902;SDS011;30288;50.514;9.678;2023-05-10T05:28:46;4.07;;;0.63;;
29902;SDS011;30288;50.514;9.678;2023-05-10T05:30:54;0.60;;;0.40;;
29902;SDS011;30288;50.514;9.678;2023-05-10T05:32:59;2.03;;;0.63;;
29902;SDS011;30288;50.514;9.678;2023-05-10T05:35:04;1.55;;;0.50;;
29902;SDS011;30288;50.514;9.678;2023-05-10T05:37:12;3.40;;;0.70;;
29902;SDS011;30288;50.514;9.678;2023-05-10T05:39:21;1.33;;;0.52;;
29902;SDS011;30288;50.514;9.678;2023-05-10T05:41:26;2.85;;;0.63;;
29902;SDS011;30288;50.514;9.678;2023-05-10T05:43:32;4.40;;;0.68;;
29902;SDS011;30288;50.514;9.678;2023-05-10T05:45:39;2.13;;;0.52;;
29902;SDS011;30288;50.514;9.678;2023-05-10T05:47:44;1.00;;;0.60;;
29902;SDS011;30288;50.514;9.678;2023-05-10T05:49:49;2.70;;;0.70;;
29902;SDS011;30288;50.514;9.678;2023-05-10T05:51:58;2.47;;;0.70;;
29902;SDS011;30288;50.514;9.678;2023-05-10T05:54:03;1.92;;;0.68;;
29902;SDS011;30288;50.514;9.678;2023-05-10T05:56:11;2.55;;;0.82;;
29902;SDS011;30288;50.514;9.678;2023-05-10T05:58:16;5.35;;;0.90;;
29902;SDS011;30288;50.514;9.678;2023-05-10T06:00:22;1.75;;;0.80;;
29902;SDS011;30288;50.514;9.678;2023-05-10T06:02:27;3.22;;;0.80;;
29902;SDS011;30288;50.514;9.678;2023-05-10T06:04:33;2.95;;;0.55;;
29902;SDS011;30288;50.514;9.678;2023-05-10T06:06:38;2.47;;;0.90;;
29902;SDS011;30288;50.514;9.678;2023-05-10T06:08:43;2.17;;;0.80;;
29902;SDS011;30288;50.514;9.678;2023-05-10T06:10:48;2.97;;;0.70;;
29902;SDS011;30288;50.514;9.678;2023-05-10T06:12:56;3.10;;;0.50;;
29902;SDS011;30288;50.514;9.678;2023-05-10T06:15:01;3.67;;;0.70;;
29902;SDS011;30288;50.514;9.678;2023-05-10T06:17:07;2.80;;;0.60;;
29902;SDS011;30288;50.514;9.678;2023-05-10T06:19:12;6.32;;;0.70;;
29902;SDS011;30288;50.514;9.678;2023-05-10T06:21:18;4.50;;;0.80;;
29902;SDS011;30288;50.514;9.678;2023-05-10T06:23:23;2.42;;;0.88;;
29902;SDS011;30288;50.514;9.678;2023-05-10T06:25:29;2.92;;;0.68;;
29902;SDS011;30288;50.514;9.678;2023-05-10T06:27:34;4.50;;;0.90;;
29902;SDS011;30288;50.514;9.678;2023-05-10T06:29:42;5.47;;;0.73;;
29902;SDS011;30288;50.514;9.678;2023-05-10T06:31:51;5.13;;;0.82;;
29902;SDS011;30288;50.514;9.678;2023-05-10T06:33:56;2.50;;;0.98;;
29902;SDS011;30288;50.514;9.678;2023-05-10T06:36:01;3.80;;;0.93;;
29902;SDS011;30288;50.514;9.678;2023-05-10T06:38:07;1.77;;;0.93;;
29902;SDS011;30288;50.514;9.678;2023-05-10T06:40:13;4.38;;;0.90;;
29902;SDS011;30288;50.514;9.678;2023-05-10T06:42:18;4.60;;;0.90;;
29902;SDS011;30288;50.514;9.678;2023-05-10T06:44:24;1.40;;;0.80;;
29902;SDS011;30288;50.514;9.678;2023-05-10T06:46:31;3.08;;;0.88;;
29902;SDS011;30288;50.514;9.678;2023-05-10T06:48:37;3.65;;;0.90;;
29902;SDS011;30288;50.514;9.678;2023-05-10T06:50:42;3.30;;;0.80;;
29902;SDS011;30288;50.514;9.678;2023-05-10T06:52:48;4.05;;;0.77;;
29902;SDS011;30288;50.514;9.678;2023-05-10T06:54:53;7.80;;;1.10;;
29902;SDS011;30288;50.514;9.678;2023-05-10T06:56:59;4.00;;;0.93;;
29902;SDS011;30288;50.514;9.678;2023-05-10T06:59:09;2.45;;;1.08;;
29902;SDS011;30288;50.514;9.678;2023-05-10T07:01:15;1.98;;;1.05;;
29902;SDS011;30288;50.514;9.678;2023-05-10T07:03:23;3.75;;;1.02;;
29902;SDS011;30288;50.514;9.678;2023-05-10T07:05:28;3.45;;;1.00;;
29902;SDS011;30288;50.514;9.678;2023-05-10T07:07:34;3.25;;;1.10;;
29902;SDS011;30288;50.514;9.678;2023-05-10T07:09:39;13.73;;;1.38;;
29902;SDS011;30288;50.514;9.678;2023-05-10T07:11:44;6.68;;;1.25;;
29902;SDS011;30288;50.514;9.678;2023-05-10T07:13:49;4.78;;;1.63;;
29902;SDS011;30288;50.514;9.678;2023-05-10T07:15:55;1.27;;;0.77;;
29902;SDS011;30288;50.514;9.678;2023-05-10T07:18:00;2.33;;;1.00;;
29902;SDS011;30288;50.514;9.678;2023-05-10T07:20:10;2.05;;;0.75;;
29902;SDS011;30288;50.514;9.678;2023-05-10T07:22:16;1.35;;;0.90;;
29902;SDS011;30288;50.514;9.678;2023-05-10T07:24:21;1.70;;;0.90;;
29902;SDS011;30288;50.514;9.678;2023-05-10T07:26:27;1.85;;;0.77;;
29902;SDS011;30288;50.514;9.678;2023-05-10T07:28:32;3.22;;;1.10;;
29902;SDS011;30288;50.514;9.678;2023-05-10T07:30:39;1.10;;;0.70;;
29902;SDS011;30288;50.514;9.678;2023-05-10T07:32:44;2.05;;;1.20;;
29902;SDS011;30288;50.514;9.678;2023-05-10T07:34:49;4.47;;;0.95;;
29902;SDS011;30288;50.514;9.678;2023-05-10T07:36:57;4.13;;;1.23;;
29902;SDS011;30288;50.514;9.678;2023-05-10T07:39:03;2.92;;;1.05;;
29902;SDS011;30288;50.514;9.678;2023-05-10T07:41:09;3.95;;;0.82;;
29902;SDS011;30288;50.514;9.678;2023-05-10T07:43:15;5.50;;;0.88;;
29902;SDS011;30288;50.514;9.678;2023-05-10T07:45:21;3.55;;;0.82;;
29902;SDS011;30288;50.514;9.678;2023-05-10T07:47:26;1.05;;;0.68;;
29902;SDS011;30288;50.514;9.678;2023-05-10T07:49:31;3.72;;;1.10;;
29902;SDS011;30288;50.514;9.678;2023-05-10T07:51:37;1.75;;;0.98;;
29902;SDS011;30288;50.514;9.678;2023-05-10T07:53:45;4.78;;;1.42;;
29902;SDS011;30288;50.514;9.678;2023-05-10T07:55:50;1.75;;;0.90;;
29902;SDS011;30288;50.514;9.678;2023-05-10T07:57:59;1.58;;;0.95;;
29902;SDS011;30288;50.514;9.678;2023-05-10T08:00:05;6.20;;;0.90;;
29902;SDS011;30288;50.514;9.678;2023-05-10T08:02:15;2.25;;;0.90;;
29902;SDS011;30288;50.514;9.678;2023-05-10T08:04:20;3.08;;;0.82;;
29902;SDS011;30288;50.514;9.678;2023-05-10T08:06:25;2.17;;;0.63;;
29902;SDS011;30288;50.514;9.678;2023-05-10T08:08:32;6.30;;;0.95;;
29902;SDS011;30288;50.514;9.678;2023-05-10T08:10:39;1.33;;;0.75;;
29902;SDS011;30288;50.514;9.678;2023-05-10T08:12:44;2.47;;;0.82;;
29902;SDS011;30288;50.514;9.678;2023-05-10T08:14:49;3.92;;;0.95;;
29902;SDS011;30288;50.514;9.678;2023-05-10T08:16:54;2.67;;;0.80;;
29902;SDS011;30288;50.514;9.678;2023-05-10T08:19:00;1.10;;;0.80;;
29902;SDS011;30288;50.514;9.678;2023-05-10T08:21:06;3.22;;;0.80;;
29902;SDS011;30288;50.514;9.678;2023-05-10T08:23:13;2.35;;;0.80;;
29902;SDS011;30288;50.514;9.678;2023-05-10T08:25:18;2.92;;;1.27;;
29902;SDS011;30288;50.514;9.678;2023-05-10T08:27:25;1.63;;;0.82;;
29902;SDS011;30288;50.514;9.678;2023-05-10T08:29:30;1.70;;;0.80;;
29902;SDS011;30288;50.514;9.678;2023-05-10T08:31:50;6.10;;;1.05;;
29902;SDS011;30288;50.514;9.678;2023-05-10T08:33:55;4.30;;;1.10;;
29902;SDS011;30288;50.514;9.678;2023-05-10T08:36:01;2.05;;;0.60;;
29902;SDS011;30288;50.514;9.678;2023-05-10T08:38:07;3.33;;;0.90;;
29902;SDS011;30288;50.514;9.678;2023-05-10T08:40:12;1.20;;;0.70;;
29902;SDS011;30288;50.514;9.678;2023-05-10T08:42:19;3.10;;;0.90;;
29902;SDS011;30288;50.514;9.678;2023-05-10T08:44:29;5.00;;;0.75;;
29902;SDS011;30288;50.514;9.678;2023-05-10T08:46:37;4.90;;;1.17;;
29902;SDS011;30288;50.514;9.678;2023-05-10T08:48:46;2.03;;;0.80;;
29902;SDS011;30288;50.514;9.678;2023-05-10T08:50:53;4.80;;;0.85;;
29902;SDS011;30288;50.514;9.678;2023-05-10T08:53:03;4.65;;;0.85;;
29902;SDS011;30288;50.514;9.678;2023-05-10T08:55:10;4.63;;;0.52;;
29902;SDS011;30288;50.514;9.678;2023-05-10T08:57:16;1.58;;;0.40;;
29902;SDS011;30288;50.514;9.678;2023-05-10T08:59:23;1.58;;;0.75;;
29902;SDS011;30288;50.514;9.678;2023-05-10T09:01:31;2.42;;;0.80;;
29902;SDS011;30288;50.514;9.678;2023-05-10T09:03:38;3.75;;;0.85;;
29902;SDS011;30288;50.514;9.678;2023-05-10T09:05:43;1.77;;;0.68;;
29902;SDS011;30288;50.514;9.678;2023-05-10T09:07:48;1.17;;;0.60;;
29902;SDS011;30288;50.514;9.678;2023-05-10T09:09:54;1.58;;;0.77;;
29902;SDS011;30288;50.514;9.678;2023-05-10T09:12:00;1.48;;;0.80;;
29902;SDS011;30288;50.514;9.678;2023-05-10T09:14:06;4.07;;;1.00;;
29902;SDS011;30288;50.514;9.678;2023-05-10T09:16:11;3.50;;;0.90;;
29902;SDS011;30288;50.514;9.678;2023-05-10T09:18:25;6.70;;;0.95;;
29902;SDS011;30288;50.514;9.678;2023-05-10T09:20:30;3.60;;;0.90;;
29902;SDS011;30288;50.514;9.678;2023-05-10T09:22:35;6.22;;;1.00;;
29902;SDS011;30288;50.514;9.678;2023-05-10T09:24:42;1.35;;;0.73;;
29902;SDS011;30288;50.514;9.678;2023-05-10T09:26:48;3.00;;;0.90;;
29902;SDS011;30288;50.514;9.678;2023-05-10T09:28:54;3.30;;;0.82;;
29902;SDS011;30288;50.514;9.678;2023-05-10T09:31:01;1.60;;;0.80;;
29902;SDS011;30288;50.514;9.678;2023-05-10T09:33:06;2.17;;;0.70;;
29902;SDS011;30288;50.514;9.678;2023-05-10T09:35:14;1.45;;;0.60;;
29902;SDS011;30288;50.514;9.678;2023-05-10T09:37:28;1.67;;;0.80;;
29902;SDS011;30288;50.514;9.678;2023-05-10T09:39:34;3.95;;;0.80;;
29902;SDS011;30288;50.514;9.678;2023-05-10T09:41:42;2.95;;;0.98;;
29902;SDS011;30288;50.514;9.678;2023-05-10T09:43:48;2.00;;;0.80;;
29902;SDS011;30288;50.514;9.678;2023-05-10T09:45:59;2.78;;;1.08;;
29902;SDS011;30288;50.514;9.678;2023-05-10T09:48:13;2.75;;;1.00;;
29902;SDS011;30288;50.514;9.678;2023-05-10T09:50:22;1.85;;;0.88;;
29902;SDS011;30288;50.514;9.678;2023-05-10T09:52:28;2.38;;;1.00;;
29902;SDS011;30288;50.514;9.678;2023-05-10T09:54:34;2.10;;;1.08;;
29902;SDS011;30288;50.514;9.678;2023-05-10T09:56:39;8.52;;;3.33;;
29902;SDS011;30288;50.514;9.678;2023-05-10T09:58:45;8.38;;;2.67;;
29902;SDS011;30288;50.514;9.678;2023-05-10T10:01:09;4.15;;;2.00;;
29902;SDS011;30288;50.514;9.678;2023-05-10T10:03:16;3.55;;;1.90;;
29902;SDS011;30288;50.514;9.678;2023-05-10T10:05:30;3.10;;;1.25;;
29902;SDS011;30288;50.514;9.678;2023-05-10T10:07:37;2.97;;;1.00;;
29902;SDS011;30288;50.514;9.678;2023-05-10T10:09:43;3.97;;;0.88;;
29902;SDS011;30288;50.514;9.678;2023-05-10T10:11:49;2.00;;;1.00;;
29902;SDS011;30288;50.514;9.678;2023-05-10T10:13:54;1.60;;;0.98;;
29902;SDS011;30288;50.514;9.678;2023-05-10T10:15:59;1.88;;;1.02;;
29902;SDS011;30288;50.514;9.678;2023-05-10T10:18:05;4.45;;;1.20;;
29902;SDS011;30288;50.514;9.678;2023-05-10T10:20:10;3.65;;;0.95;;
29902;SDS011;30288;50.514;9.678;2023-05-10T10:22:19;2.70;;;1.05;;
29902;SDS011;30288;50.514;9.678;2023-05-10T10:24:24;2.00;;;0.80;;
29902;SDS011;30288;50.514;9.678;2023-05-10T10:26:29;4.35;;;1.10;;
29902;SDS011;30288;50.514;9.678;2023-05-10T10:28:36;3.03;;;0.70;;
29902;SDS011;30288;50.514;9.678;2023-05-10T10:30:53;2.03;;;0.85;;
29902;SDS011;30288;50.514;9.678;2023-05-10T10:33:09;3.72;;;0.90;;
29902;SDS011;30288;50.514;9.678;2023-05-10T10:35:32;2.55;;;0.90;;
29902;SDS011;30288;50.514;9.678;2023-05-10T10:37:47;1.48;;;0.90;;
29902;SDS011;30288;50.514;9.678;2023-05-10T10:39:55;2.08;;;0.65;;
29902;SDS011;30288;50.514;9.678;2023-05-10T10:42:01;5.30;;;0.90;;
29902;SDS011;30288;50.514;9.678;2023-05-10T10:46:29;4.55;;;1.10;;
29902;SDS011;30288;50.514;9.678;2023-05-10T10:48:35;1.88;;;0.82;;
29902;SDS011;30288;50.514;9.678;2023-05-10T10:50:43;2.03;;;0.80;;
29902;SDS011;30288;50.514;9.678;2023-05-10T10:52:52;4.20;;;0.90;;
29902;SDS011;30288;50.514;9.678;2023-05-10T10:54:58;2.28;;;1.10;;
29902;SDS011;30288;50.514;9.678;2023-05-10T10:57:10;1.48;;;0.90;;
29902;SDS011;30288;50.514;9.678;2023-05-10T10:59:26;2.58;;;1.20;;
29902;SDS011;30288;50.514;9.678;2023-05-10T11:01:32;1.73;;;0.90;;
29902;SDS011;30288;50.514;9.678;2023-05-10T11:03:38;3.50;;;0.93;;
29902;SDS011;30288;50.514;9.678;2023-05-10T11:05:44;4.32;;;1.10;;
29902;SDS011;30288;50.514;9.678;2023-05-10T11:07:55;2.85;;;1.15;;
29902;SDS011;30288;50.514;9.678;2023-05-10T11:10:03;2.17;;;1.00;;
29902;SDS011;30288;50.514;9.678;2023-05-10T11:12:09;4.97;;;1.13;;
29902;SDS011;30288;50.514;9.678;2023-05-10T11:14:14;2.40;;;0.80;;
29902;SDS011;30288;50.514;9.678;2023-05-10T11:16:25;2.15;;;1.10;;
29902;SDS011;30288;50.514;9.678;2023-05-10T11:18:30;4.32;;;1.08;;
29902;SDS011;30288;50.514;9.678;2023-05-10T11:20:38;3.40;;;1.25;;
29902;SDS011;30288;50.514;9.678;2023-05-10T11:22:49;3.30;;;1.40;;
29902;SDS011;30288;50.514;9.678;2023-05-10T11:24:58;2.55;;;1.65;;
29902;SDS011;30288;50.514;9.678;2023-05-10T11:27:03;4.88;;;1.70;;
29902;SDS011;30288;50.514;9.678;2023-05-10T11:29:10;3.42;;;1.58;;
29902;SDS011;30288;50.514;9.678;2023-05-10T11:31:18;5.88;;;1.40;;
29902;SDS011;30288;50.514;9.678;2023-05-10T11:33:24;4.20;;;1.30;;
29902;SDS011;30288;50.514;9.678;2023-05-10T11:35:29;3.10;;;1.33;;
29902;SDS011;30288;50.514;9.678;2023-05-10T11:37:34;2.95;;;1.40;;
29902;SDS011;30288;50.514;9.678;2023-05-10T11:39:45;3.67;;;1.42;;
29902;SDS011;30288;50.514;9.678;2023-05-10T11:41:54;4.63;;;1.75;;
29902;SDS011;30288;50.514;9.678;2023-05-10T11:43:59;4.65;;;1.73;;
29902;SDS011;30288;50.514;9.678;2023-05-10T11:46:06;5.78;;;1.67;;
29902;SDS011;30288;50.514;9.678;2023-05-10T11:48:12;4.32;;;1.70;;
29902;SDS011;30288;50.514;9.678;2023-05-10T11:50:18;4.70;;;1.83;;
29902;SDS011;30288;50.514;9.678;2023-05-10T11:52:23;2.67;;;1.65;;
29902;SDS011;30288;50.514;9.678;2023-05-10T11:54:28;4.88;;;1.63;;
29902;SDS011;30288;50.514;9.678;2023-05-10T11:56:36;5.32;;;2.10;;
29902;SDS011;30288;50.514;9.678;2023-05-10T11:58:45;4.15;;;1.50;;
29902;SDS011;30288;50.514;9.678;2023-05-10T12:00:57;7.40;;;3.00;;
29902;SDS011;30288;50.514;9.678;2023-05-10T12:03:02;7.07;;;4.05;;
29902;SDS011;30288;50.514;9.678;2023-05-10T12:05:08;5.05;;;2.58;;
29902;SDS011;30288;50.514;9.678;2023-05-10T12:07:15;9.43;;;4.55;;
29902;SDS011;30288;50.514;9.678;2023-05-10T12:09:21;8.23;;;3.10;;
29902;SDS011;30288;50.514;9.678;2023-05-10T12:11:43;3.85;;;1.48;;
29902;SDS011;30288;50.514;9.678;2023-05-10T12:13:51;4.25;;;1.17;;
29902;SDS011;30288;50.514;9.678;2023-05-10T12:15:57;6.22;;;1.10;;
29902;SDS011;30288;50.514;9.678;2023-05-10T12:18:02;2.63;;;1.02;;
29902;SDS011;30288;50.514;9.678;2023-05-10T12:20:15;3.92;;;1.20;;
29902;SDS011;30288;50.514;9.678;2023-05-10T12:22:22;3.83;;;1.63;;
29902;SDS011;30288;50.514;9.678;2023-05-10T12:24:27;4.22;;;1.70;;
29902;SDS011;30288;50.514;9.678;2023-05-10T12:26:32;5.68;;;2.10;;
29902;SDS011;30288;50.514;9.678;2023-05-10T12:28:39;5.75;;;2.00;;
29902;SDS011;30288;50.514;9.678;2023-05-10T12:30:47;3.58;;;1.90;;
29902;SDS011;30288;50.514;9.678;2023-05-10T12:32:52;3.85;;;1.90;;
29902;SDS011;30288;50.514;9.678;2023-05-10T12:34:57;4.95;;;1.92;;
29902;SDS011;30288;50.514;9.678;2023-05-10T12:37:03;4.13;;;2.10;;
29902;SDS011;30288;50.514;9.678;2023-05-10T12:39:08;8.77;;;2.20;;
29902;SDS011;30288;50.514;9.678;2023-05-10T12:41:14;2.78;;;1.60;;
29902;SDS011;30288;50.514;9.678;2023-05-10T12:43:20;4.07;;;1.98;;
29902;SDS011;30288;50.514;9.678;2023-05-10T12:45:25;4.60;;;2.00;;
29902;SDS011;30288;50.514;9.678;2023-05-10T12:47:33;4.85;;;2.13;;
29902;SDS011;30288;50.514;9.678;2023-05-10T12:49:41;7.45;;;2.58;;
29902;SDS011;30288;50.514;9.678;2023-05-10T12:51:47;6.97;;;2.47;;
29902;SDS011;30288;50.514;9.678;2023-05-10T12:53:52;4.38;;;2.13;;
29902;SDS011;30288;50.514;9.678;2023-05-10T12:55:57;6.03;;;1.80;;